Time;durP1;ratioP1;P1;durP2;ratioP2;P2;SDS_P1;SDS_P2;PMS_P1;PMS_P2;Temp;Humidity;BMP_temperature;BMP_pressure;BME280_temperature;BME280_humidity;BME280_pressure;Samples;Min_cycle;Max_cycle;Signal;HPM_P1;HPM_P2
2023/09/10 00:00:30;;;;;;;0.80;0.80;;;;;;;15.36;nan;60955.94;5012257;28;20655;-66
2023/09/10 00:02:56;;;;;;;1.42;1.33;;;;;;;15.14;nan;61018.69;5012296;28;20195;-66
2023/09/10 00:05:21;;;;;;;1.00;1.00;;;;;;;15.18;nan;60918.25;5012144;28;20169;-66
2023/09/10 00:07:47;;;;;;;0.80;0.80;;;;;;;14.95;nan;60918.13;5011707;28;20220;-66
2023/09/10 00:10:12;;;;;;;1.20;1.15;;;;;;;14.99;nan;60846.00;5012040;28;20164;-66
2023/09/10 00:12:38;;;;;;;0.90;0.90;;;;;;;14.67;nan;60820.38;5012301;28;20192;-66
2023/09/10 00:15:04;;;;;;;1.00;1.00;;;;;;;14.70;nan;60875.16;5012362;28;20656;-66
2023/09/10 00:17:30;;;;;;;0.80;0.80;;;;;;;14.65;nan;60859.25;5012337;28;20199;-66
2023/09/10 00:19:55;;;;;;;1.50;1.40;;;;;;;15.09;nan;60899.84;5012266;28;20250;-66
2023/09/10 00:22:21;;;;;;;1.05;1.05;;;;;;;15.23;nan;61041.69;5012029;28;20648;-66
2023/09/10 00:24:46;;;;;;;1.17;1.17;;;;;;;15.49;nan;61014.31;5012232;28;20226;-66
2023/09/10 00:27:13;;;;;;;1.48;1.38;;;;;;;15.49;nan;61094.13;5012152;28;20172;-66
2023/09/10 00:29:39;;;;;;;1.15;1.15;;;;;;;15.29;nan;60879.16;5012128;28;20194;-65
2023/09/10 00:32:04;;;;;;;1.10;1.10;;;;;;;15.43;nan;61002.44;5012216;28;20624;-65
2023/09/10 00:34:30;;;;;;;1.33;1.10;;;;;;;;;;5011746;28;20204;-66
2023/09/10 00:36:56;;;;;;;1.10;1.10;;;;;;;15.25;nan;60930.72;5011808;28;20195;-65
2023/09/10 00:39:22;;;;;;;1.13;1.13;;;;;;;15.27;nan;60902.06;5011997;28;20180;-65
2023/09/10 00:41:49;;;;;;;1.05;0.95;;;;;;;15.05;nan;60934.50;5012625;28;20183;-65
2023/09/10 00:44:14;;;;;;;1.00;1.00;;;;;;;15.08;nan;61014.50;5013556;28;20180;-66
2023/09/10 00:46:40;;;;;;;1.10;1.10;;;;;;;13.95;nan;60843.38;5011922;28;20188;-66
2023/09/10 00:49:05;;;;;;;0.95;0.95;;;;;;;15.14;nan;60867.44;5011534;28;20195;-66
2023/09/10 00:51:31;;;;;;;2.85;1.63;;;;;;;15.06;nan;60830.16;5011635;28;20643;-66
2023/09/10 00:53:58;;;;;;;1.50;1.40;;;;;;;15.14;nan;60851.44;5011905;28;20258;-66
2023/09/10 00:56:24;;;;;;;1.00;1.00;;;;;;;15.04;nan;60809.91;5012110;28;20694;-66
2023/09/10 00:58:50;;;;;;;1.27;1.17;;;;;;;14.81;nan;60748.66;5011873;28;20183;-66
2023/09/10 01:01:17;;;;;;;1.20;1.15;;;;;;;15.23;nan;60887.84;5011822;28;20168;-64
2023/09/10 01:03:43;;;;;;;4.25;1.70;;;;;;;15.20;nan;60861.34;5011290;28;20176;-64
2023/09/10 01:06:09;;;;;;;1.27;1.20;;;;;;;15.25;nan;60886.97;5011495;28;20183;-64
2023/09/10 01:08:34;;;;;;;1.00;1.00;;;;;;;15.11;nan;60869.22;5011535;28;20216;-65
2023/09/10 01:11:26;;;;;;;1.30;1.20;;;;;;;15.04;nan;60823.34;5011550;28;20654;-65
2023/09/10 01:14:11;;;;;;;0.90;0.90;;;;;;;14.77;nan;60685.03;5011449;28;20207;-65
2023/09/10 01:16:47;;;;;;;1.67;1.58;;;;;;;14.87;nan;60755.41;5011503;28;20636;-65
2023/09/10 01:19:39;;;;;;;1.33;1.27;;;;;;;14.92;nan;60727.56;5011633;28;20206;-65
2023/09/10 01:22:33;;;;;;;0.90;0.90;;;;;;;14.73;nan;60696.00;5008065;28;20589;-65
2023/09/10 01:25:00;;;;;;;1.33;1.25;;;;;;;11.93;nan;61855.19;5015169;28;20589;-66
2023/09/10 01:27:25;;;;;;;2.38;1.23;;;;;;;14.85;nan;60814.28;5015320;28;20258;-65
2023/09/10 01:29:51;;;;;;;1.00;1.00;;;;;;;14.84;nan;60867.19;5015252;28;20231;-65
2023/09/10 01:32:37;;;;;;;1.10;1.10;;;;;;;15.02;nan;61106.63;5015221;28;20176;-66
2023/09/10 01:35:16;;;;;;;1.95;1.85;;;;;;;15.06;nan;60960.81;5015221;28;20176;-65
2023/09/10 01:38:13;;;;;;;0.90;0.90;;;;;;;15.26;nan;60991.56;5014831;28;20171;-65
2023/09/10 01:40:48;;;;;;;0.98;0.98;;;;;;;15.01;nan;61005.19;5011587;28;20188;-65
2023/09/10 01:43:14;;;;;;;1.00;1.00;;;;;;;14.79;nan;60993.28;5014459;28;20168;-65
2023/09/10 01:45:39;;;;;;;0.90;0.90;;;;;;;15.05;nan;61166.03;5014488;28;20707;-65
2023/09/10 01:48:05;;;;;;;0.95;0.95;;;;;;;15.01;nan;60940.31;5014315;28;20212;-65
2023/09/10 01:50:31;;;;;;;1.20;1.20;;;;;;;14.92;nan;60907.59;5014769;28;20172;-65
2023/09/10 01:52:58;;;;;;;1.00;1.00;;;;;;;14.82;nan;61156.09;5014838;28;20674;-66
2023/09/10 01:55:24;;;;;;;0.90;0.90;;;;;;;14.91;nan;60932.19;5013990;28;20614;-65
2023/09/10 01:57:49;;;;;;;0.90;0.90;;;;;;;14.72;nan;61149.94;5014391;28;20560;-65
2023/09/10 02:00:15;;;;;;;1.05;1.05;;;;;;;14.65;nan;60874.69;5013272;28;20176;-65
2023/09/10 02:02:40;;;;;;;1.38;1.30;;;;;;;14.78;nan;60981.28;5014780;28;20176;-65
2023/09/10 02:05:06;;;;;;;1.10;1.10;;;;;;;14.90;nan;60959.34;5013288;28;20183;-66
2023/09/10 02:07:32;;;;;;;1.85;1.52;;;;;;;14.72;nan;61056.81;5014731;28;20639;-65
2023/09/10 02:09:58;;;;;;;1.10;1.10;;;;;;;14.85;nan;60984.59;5014169;28;20225;-65
2023/09/10 02:12:24;;;;;;;1.00;1.00;;;;;;;14.72;nan;60887.13;5014471;28;20170;-65
2023/09/10 02:14:49;;;;;;;1.13;1.13;;;;;;;14.58;nan;60902.78;5014321;28;20258;-65
2023/09/10 02:17:15;;;;;;;0.90;0.90;;;;;;;14.46;nan;60927.84;5014449;28;20176;-66
2023/09/10 02:19:40;;;;;;;3.13;1.27;;;;;;;14.38;nan;60952.28;5014423;28;20183;-65
2023/09/10 02:22:06;;;;;;;1.00;1.00;;;;;;;14.40;nan;60965.34;5014053;28;20168;-65
2023/09/10 02:24:31;;;;;;;1.08;1.08;;;;;;;14.53;nan;60822.63;5014000;28;20207;-65
2023/09/10 02:26:56;;;;;;;0.90;0.90;;;;;;;14.59;nan;60839.66;5014024;28;20172;-65
2023/09/10 02:29:22;;;;;;;1.02;1.02;;;;;;;14.50;nan;60911.78;5013817;28;20718;-65
2023/09/10 02:31:47;;;;;;;1.55;1.45;;;;;;;14.54;nan;60873.16;5012893;28;20188;-65
2023/09/10 02:34:12;;;;;;;0.90;0.90;;;;;;;14.13;nan;60945.22;5011688;28;20222;-65
2023/09/10 02:36:38;;;;;;;0.90;0.90;;;;;;;14.16;nan;60818.16;5014083;28;20275;-65
2023/09/10 02:39:03;;;;;;;0.95;0.95;;;;;;;14.20;nan;60829.22;5013745;28;20529;-65
2023/09/10 02:41:28;;;;;;;1.10;1.10;;;;;;;14.51;nan;60905.22;5013907;28;20176;-65
2023/09/10 02:43:54;;;;;;;1.00;1.00;;;;;;;14.28;nan;61028.34;5014159;28;20182;-65
2023/09/10 02:46:19;;;;;;;1.48;1.38;;;;;;;14.38;nan;60859.75;5013979;28;20184;-65
2023/09/10 02:48:45;;;;;;;1.13;1.02;;;;;;;14.52;nan;60922.31;5013856;28;20172;-65
2023/09/10 02:51:10;;;;;;;0.93;0.93;;;;;;;14.34;nan;60904.63;5013831;28;20164;-65
2023/09/10 02:53:35;;;;;;;1.10;1.10;;;;;;;14.32;nan;60888.97;5013581;28;20199;-65
2023/09/10 02:56:01;;;;;;;2.58;1.42;;;;;;;13.86;nan;61012.97;5013244;28;20176;-65
2023/09/10 02:58:27;;;;;;;0.90;0.90;;;;;;;14.47;nan;60906.41;5013386;28;20183;-65
2023/09/10 03:00:52;;;;;;;0.95;0.95;;;;;;;14.08;nan;60845.13;5013342;28;20254;-65
2023/09/10 03:03:19;;;;;;;1.58;1.48;;;;;;;14.41;nan;61043.00;5015208;28;20293;-65
2023/09/10 03:05:46;;;;;;;0.98;0.98;;;;;;;14.39;nan;60925.69;5017428;28;20191;-65
2023/09/10 03:08:11;;;;;;;1.00;1.00;;;;;;;14.42;nan;61033.88;5015714;28;20290;-65
2023/09/10 03:10:36;;;;;;;1.27;1.23;;;;;;;14.45;nan;60911.31;5012997;28;20184;-65
2023/09/10 03:13:02;;;;;;;0.90;0.90;;;;;;;14.10;nan;60828.84;5014953;28;20233;-65
2023/09/10 03:15:27;;;;;;;0.85;0.85;;;;;;;14.30;nan;60945.81;5015228;28;20179;-65
2023/09/10 03:17:53;;;;;;;1.45;1.35;;;;;;;14.21;nan;60981.91;5012541;28;20612;-65
2023/09/10 03:20:18;;;;;;;1.10;1.10;;;;;;;12.90;nan;60787.53;5013120;28;20324;-65
2023/09/10 03:22:44;;;;;;;1.00;1.00;;;;;;;14.13;nan;60755.16;5013254;28;20231;-65
2023/09/10 03:25:10;;;;;;;1.05;1.05;;;;;;;13.96;nan;60705.28;5018077;28;20188;-65
2023/09/10 03:27:35;;;;;;;0.98;0.98;;;;;;;14.03;nan;60777.31;5013182;28;20176;-66
2023/09/10 03:30:01;;;;;;;1.75;1.65;;;;;;;13.77;nan;60719.91;5015791;28;20279;-65
2023/09/10 03:32:27;;;;;;;0.95;0.95;;;;;;;13.82;nan;60625.41;5012228;28;20188;-65
2023/09/10 03:34:52;;;;;;;1.20;1.20;;;;;;;14.07;nan;60731.00;5017982;28;20581;-65
2023/09/10 03:37:18;;;;;;;1.80;1.70;;;;;;;14.26;nan;60890.47;5017128;28;20180;-65
2023/09/10 03:39:43;;;;;;;1.00;1.00;;;;;;;14.41;nan;60981.34;5013185;28;20175;-65
2023/09/10 03:42:09;;;;;;;1.15;1.15;;;;;;;14.20;nan;60829.22;5016519;28;20208;-65
2023/09/10 03:44:34;;;;;;;0.85;0.85;;;;;;;14.42;nan;60797.44;5017441;28;20184;-65
2023/09/10 03:47:00;;;;;;;0.90;0.90;;;;;;;14.66;nan;60908.66;5012441;28;20176;-65
2023/09/10 03:49:25;;;;;;;1.00;1.00;;;;;;;14.55;nan;60892.28;5018037;28;20570;-65
2023/09/10 03:51:53;;;;;;;0.98;0.98;;;;;;;14.58;nan;61067.31;5017576;28;20179;-65
2023/09/10 03:54:18;;;;;;;1.00;1.00;;;;;;;14.55;nan;60987.38;5017390;28;20211;-65
2023/09/10 03:56:44;;;;;;;0.93;0.93;;;;;;;14.95;nan;61039.00;5013784;28;20182;-65
2023/09/10 03:59:10;;;;;;;2.08;1.90;;;;;;;14.85;nan;61028.31;5013218;28;20211;-65
2023/09/10 04:01:36;;;;;;;1.00;1.00;;;;;;;14.76;nan;60995.03;5014509;28;20222;-65
2023/09/10 04:04:02;;;;;;;0.80;0.80;;;;;;;15.02;nan;61052.59;5012439;28;20618;-65
2023/09/10 04:06:28;;;;;;;1.27;1.27;;;;;;;15.09;nan;61018.75;5018802;28;20183;-65
2023/09/10 04:08:53;;;;;;;1.35;1.25;;;;;;;14.89;nan;61017.38;5017410;28;20315;-65
2023/09/10 04:11:18;;;;;;;1.13;1.05;;;;;;;14.71;nan;60932.25;5014155;28;20211;-65
2023/09/10 04:13:44;;;;;;;0.80;0.80;;;;;;;14.48;nan;60963.50;5015530;28;20257;-65
2023/09/10 04:16:09;;;;;;;0.82;0.82;;;;;;;14.69;nan;61107.44;5013304;28;20643;-65
2023/09/10 04:18:35;;;;;;;0.82;0.82;;;;;;;14.83;nan;61213.22;5016313;28;20253;-65
2023/09/10 04:21:04;;;;;;;0.93;0.93;;;;;;;14.75;nan;60914.19;5020202;28;20180;-65
2023/09/10 04:23:30;;;;;;;0.80;0.80;;;;;;;14.80;nan;60916.69;5012008;28;20215;-65
2023/09/10 04:25:56;;;;;;;1.80;1.05;;;;;;;15.00;nan;61032.34;5014186;28;20190;-65
2023/09/10 04:28:21;;;;;;;0.80;0.80;;;;;;;15.20;nan;61071.75;5017089;28;20172;-65
2023/09/10 04:30:47;;;;;;;1.42;1.20;;;;;;;14.99;nan;61010.06;5013141;28;20720;-65
2023/09/10 04:33:16;;;;;;;0.82;0.82;;;;;;;15.43;nan;61116.25;5012513;28;20291;-65
2023/09/10 04:35:50;;;;;;;0.95;0.95;;;;;;;15.01;nan;61197.53;5011635;28;20538;-65
2023/09/10 04:38:16;;;;;;;1.42;1.33;;;;;;;15.42;nan;61112.56;5014133;28;20291;-65
2023/09/10 04:40:41;;;;;;;0.90;0.90;;;;;;;15.19;nan;61042.88;5012561;28;20216;-65
2023/09/10 04:43:07;;;;;;;0.90;0.90;;;;;;;15.31;nan;61223.69;5018843;28;20230;-64
2023/09/10 04:45:33;;;;;;;0.85;0.85;;;;;;;15.53;nan;61064.66;5016101;28;20187;-65
2023/09/10 04:47:58;;;;;;;0.80;0.80;;;;;;;15.78;nan;61173.22;5011687;28;20199;-65
2023/09/10 04:50:24;;;;;;;0.90;0.90;;;;;;;15.77;nan;61226.16;5014265;28;20215;-65
2023/09/10 04:52:49;;;;;;;0.77;0.73;;;;;;;15.69;nan;61149.63;5011723;28;20222;-65
2023/09/10 04:55:15;;;;;;;1.35;1.25;;;;;;;15.91;nan;61166.69;5011257;28;20180;-66
2023/09/10 04:57:41;;;;;;;1.20;1.17;;;;;;;16.08;nan;61156.97;5016194;28;20546;-65
2023/09/10 05:00:09;;;;;;;0.70;0.70;;;;;;;15.87;nan;61242.59;5023893;28;20242;-66
2023/09/10 05:02:34;;;;;;;0.60;0.60;;;;;;;16.39;nan;61454.34;5023767;28;20189;-65
2023/09/10 05:05:00;;;;;;;0.77;0.77;;;;;;;16.40;nan;61257.53;5020081;28;20179;-66
2023/09/10 05:07:25;;;;;;;1.80;1.70;;;;;;;16.39;nan;61243.50;5021242;28;20215;-65
2023/09/10 05:09:50;;;;;;;1.08;1.08;;;;;;;16.61;nan;61265.78;5020029;28;20183;-65
2023/09/10 05:12:16;;;;;;;0.70;0.70;;;;;;;16.79;nan;61224.19;5022890;28;20172;-65
2023/09/10 05:14:41;;;;;;;0.90;0.90;;;;;;;16.82;nan;61368.34;5022178;28;20216;-65
2023/09/10 05:17:07;;;;;;;0.80;0.80;;;;;;;16.89;nan;61306.59;5019886;28;20649;-65
2023/09/10 05:19:32;;;;;;;0.90;0.90;;;;;;;17.15;nan;61418.59;5024676;28;20686;-67
2023/09/10 05:21:59;;;;;;;0.90;0.90;;;;;;;17.15;nan;61292.09;5024257;28;20612;-65
2023/09/10 05:24:24;;;;;;;0.88;0.88;;;;;;;17.10;nan;61301.94;5021838;28;20207;-68
2023/09/10 05:26:50;;;;;;;0.85;0.85;;;;;;;17.20;nan;61248.69;5022991;28;20667;-66
2023/09/10 05:29:15;;;;;;;1.15;1.05;;;;;;;17.14;nan;61316.78;5024883;28;20176;-65
2023/09/10 05:31:41;;;;;;;0.90;0.90;;;;;;;17.30;nan;61314.19;5023624;28;20184;-65
2023/09/10 05:34:06;;;;;;;0.88;0.88;;;;;;;17.49;nan;61320.16;5024037;28;20211;-66
2023/09/10 05:36:32;;;;;;;0.88;0.88;;;;;;;17.61;nan;61294.44;5021716;28;20586;-66
2023/09/10 05:38:58;;;;;;;1.48;1.38;;;;;;;17.65;nan;61309.84;5020897;28;20175;-67
2023/09/10 05:41:23;;;;;;;0.65;0.65;;;;;;;18.07;nan;61405.28;5020616;28;20180;-66
2023/09/10 05:43:49;;;;;;;0.77;0.77;;;;;;;18.15;nan;61708.53;5022653;28;20242;-66
2023/09/10 05:46:16;;;;;;;1.48;1.38;;;;;;;18.18;nan;61528.34;5023958;28;20279;-66
2023/09/10 05:48:41;;;;;;;0.45;0.45;;;;;;;18.04;nan;61631.97;5023304;28;20179;-66
2023/09/10 05:51:07;;;;;;;0.70;0.70;;;;;;;18.54;nan;61520.00;5018697;28;20202;-66
2023/09/10 05:53:32;;;;;;;0.60;0.60;;;;;;;18.67;nan;61534.16;5023703;28;20195;-66
2023/09/10 05:55:57;;;;;;;0.70;0.70;;;;;;;18.82;nan;61489.00;5023942;28;20235;-66
2023/09/10 05:58:24;;;;;;;1.38;0.90;;;;;;;18.72;nan;61477.69;5021659;28;20180;-66
2023/09/10 06:00:52;;;;;;;0.60;0.60;;;;;;;19.05;nan;61540.38;5015288;28;20240;-66
2023/09/10 06:03:18;;;;;;;0.90;0.90;;;;;;;19.21;nan;61651.72;5025328;28;20175;-66
2023/09/10 06:05:43;;;;;;;5.93;1.30;;;;;;;19.49;nan;61558.56;5021106;28;20182;-66
2023/09/10 06:08:08;;;;;;;0.77;0.77;;;;;;;19.61;nan;61496.97;5022369;28;20254;-65
2023/09/10 06:10:34;;;;;;;0.90;0.90;;;;;;;19.51;nan;61551.03;5021120;28;20187;-67
2023/09/10 06:12:59;;;;;;;0.90;0.90;;;;;;;19.88;nan;61602.75;5022362;28;20610;-67
2023/09/10 06:15:26;;;;;;;0.60;0.60;;;;;;;19.91;nan;61639.84;5024625;28;20175;-67
2023/09/10 06:17:51;;;;;;;0.70;0.70;;;;;;;20.02;nan;61740.50;5021885;28;20184;-66
2023/09/10 06:20:16;;;;;;;0.90;0.90;;;;;;;20.33;nan;61681.72;5018856;28;20578;-67
2023/09/10 06:22:42;;;;;;;0.70;0.70;;;;;;;20.70;nan;61717.94;5018462;28;20180;-67
2023/09/10 06:25:07;;;;;;;0.38;0.38;;;;;;;20.69;nan;61701.22;5013852;28;20266;-67
2023/09/10 06:27:33;;;;;;;0.73;0.73;;;;;;;20.78;nan;61671.91;5013803;28;20254;-66
2023/09/10 06:29:58;;;;;;;0.45;0.45;;;;;;;21.08;nan;61687.72;5014118;28;20270;-66
2023/09/10 06:32:23;;;;;;;0.57;0.57;;;;;;;21.21;nan;61712.31;5013794;28;20172;-66
2023/09/10 06:34:49;;;;;;;0.60;0.60;;;;;;;21.52;nan;61807.84;5014025;28;20183;-66
2023/09/10 06:37:14;;;;;;;0.55;0.55;;;;;;;21.68;nan;61874.84;5013268;28;20175;-67
2023/09/10 06:39:40;;;;;;;0.57;0.57;;;;;;;21.69;nan;61833.81;5010920;28;20184;-67
2023/09/10 06:42:11;;;;;;;0.70;0.70;;;;;;;21.99;nan;61901.72;5013744;28;20244;-67
2023/09/10 06:44:38;;;;;;;1.30;1.17;;;;;;;22.08;nan;61916.59;5014079;28;20179;-67
2023/09/10 06:47:04;;;;;;;0.60;0.60;;;;;;;21.95;nan;62011.69;5013783;28;20172;-67
2023/09/10 06:49:29;;;;;;;0.70;0.70;;;;;;;21.90;nan;61855.63;5013358;28;20596;-65
2023/09/10 06:51:56;;;;;;;0.70;0.70;;;;;;;21.76;nan;61902.16;5013543;28;20182;-66
2023/09/10 06:54:22;;;;;;;0.60;0.60;;;;;;;22.00;nan;61846.19;5013235;28;20222;-67
2023/09/10 06:56:47;;;;;;;1.02;1.02;;;;;;;21.96;nan;61896.28;5013346;28;20714;-67
2023/09/10 06:59:13;;;;;;;0.60;0.60;;;;;;;22.07;nan;61900.41;5013666;28;20226;-67
2023/09/10 07:01:38;;;;;;;0.70;0.70;;;;;;;22.03;nan;61849.03;5013570;28;20172;-67
2023/09/10 07:04:24;;;;;;;0.70;0.70;;;;;;;22.37;nan;62023.03;5013279;28;20169;-67
2023/09/10 07:06:51;;;;;;;0.65;0.65;;;;;;;22.47;nan;61943.28;5012821;28;20277;-69
2023/09/10 07:09:21;;;;;;;0.60;0.60;;;;;;;22.57;nan;61915.00;5013011;28;20219;-68
2023/09/10 07:11:46;;;;;;;0.60;0.60;;;;;;;22.74;nan;61965.63;5013641;28;20165;-67
2023/09/10 07:14:12;;;;;;;0.80;0.80;;;;;;;22.94;nan;62021.09;5013030;28;20203;-68
2023/09/10 07:16:37;;;;;;;1.80;1.45;;;;;;;22.96;nan;62085.94;5012916;28;20612;-67
2023/09/10 07:19:02;;;;;;;3.50;1.80;;;;;;;23.04;nan;62001.19;5012143;28;20168;-67
2023/09/10 07:21:28;;;;;;;0.85;0.85;;;;;;;23.13;nan;62098.03;5012685;28;20168;-68
2023/09/10 07:23:54;;;;;;;0.77;0.77;;;;;;;23.44;nan;62057.19;5012953;28;20726;-67
2023/09/10 07:26:20;;;;;;;0.73;0.73;;;;;;;23.49;nan;62059.69;5012776;28;20587;-66
2023/09/10 07:28:46;;;;;;;0.65;0.65;;;;;;;23.48;nan;62158.25;5013514;28;20545;-67
2023/09/10 07:31:11;;;;;;;0.52;0.52;;;;;;;23.85;nan;62170.56;5012946;28;20172;-68
2023/09/10 07:33:36;;;;;;;0.98;0.95;;;;;;;23.77;nan;62039.94;5011038;28;20198;-67
2023/09/10 07:36:02;;;;;;;0.95;0.60;;;;;;;23.83;nan;62236.72;5012695;28;20187;-67
2023/09/10 07:38:28;;;;;;;0.60;0.60;;;;;;;23.97;nan;62119.56;5012712;28;20183;-67
2023/09/10 07:40:53;;;;;;;0.68;0.68;;;;;;;24.12;nan;62104.75;5012778;28;20251;-67
2023/09/10 07:43:19;;;;;;;0.63;0.63;;;;;;;24.41;nan;62216.16;5012868;28;20318;-67
2023/09/10 07:45:45;;;;;;;0.52;0.52;;;;;;;24.52;nan;62137.25;5012829;28;20172;-67
2023/09/10 07:48:11;;;;;;;0.60;0.60;;;;;;;24.59;nan;62189.66;5012422;28;20579;-65
2023/09/10 07:50:37;;;;;;;0.95;0.95;;;;;;;24.72;nan;62266.06;5012429;28;20203;-69
2023/09/10 07:53:03;;;;;;;0.80;0.80;;;;;;;24.90;nan;62268.31;5012542;28;20570;-68
2023/09/10 07:55:28;;;;;;;1.52;1.40;;;;;;;25.10;nan;62314.09;5012657;28;20172;-68
2023/09/10 07:57:53;;;;;;;0.60;0.60;;;;;;;25.22;nan;62349.28;5012729;28;20263;-70
2023/09/10 08:00:19;;;;;;;0.70;0.70;;;;;;;25.08;nan;62380.38;5012542;28;20238;-68
2023/09/10 08:02:45;;;;;;;0.60;0.60;;;;;;;25.00;nan;62355.56;5012254;28;20176;-69
2023/09/10 08:05:11;;;;;;;0.60;0.60;;;;;;;25.23;nan;62313.81;5012447;28;20168;-68
2023/09/10 08:07:36;;;;;;;0.57;0.57;;;;;;;25.43;nan;62294.75;5011813;28;20171;-68
2023/09/10 08:10:02;;;;;;;0.80;0.80;;;;;;;18.84;nan;61719.06;5012357;28;20565;-68
2023/09/10 08:12:27;;;;;;;0.95;0.90;;;;;;;25.22;nan;62244.66;5012199;28;20207;-68
2023/09/10 08:14:53;;;;;;;0.82;0.82;;;;;;;25.52;nan;62396.06;5012190;28;20180;-68
2023/09/10 08:17:19;;;;;;;0.50;0.50;;;;;;;25.64;nan;62239.06;5012341;28;20255;-68
2023/09/10 08:19:44;;;;;;;0.55;0.55;;;;;;;26.06;nan;62344.59;5011978;28;20180;-68
2023/09/10 08:22:09;;;;;;;0.85;0.85;;;;;;;26.31;nan;62466.94;5011660;28;20172;-69
2023/09/10 08:24:35;;;;;;;0.50;0.50;;;;;;;26.46;nan;62423.78;5011902;28;20172;-68
2023/09/10 08:27:03;;;;;;;0.73;0.73;;;;;;;26.47;nan;62448.50;5010658;28;20184;-69
2023/09/10 08:29:28;;;;;;;0.40;0.40;;;;;;;26.57;nan;62427.91;5012015;28;20617;-68
2023/09/10 08:31:54;;;;;;;0.65;0.65;;;;;;;26.68;nan;62629.28;5011263;28;20195;-66
2023/09/10 08:34:19;;;;;;;0.52;0.52;;;;;;;26.80;nan;62501.38;5011974;28;20311;-69
2023/09/10 08:36:45;;;;;;;0.45;0.45;;;;;;;26.25;nan;62394.56;5011874;28;20160;-66
2023/09/10 08:39:10;;;;;;;0.68;0.68;;;;;;;26.08;nan;62506.66;5011974;28;20172;-66
2023/09/10 08:41:46;;;;;;;0.77;0.77;;;;;;;26.06;nan;62389.13;5011975;28;20538;-66
2023/09/10 08:44:17;;;;;;;1.20;0.52;;;;;;;26.09;nan;62502.56;5011983;28;20187;-66
2023/09/10 08:46:44;;;;;;;0.70;0.70;;;;;;;26.23;nan;62521.22;5011800;28;20180;-66
2023/09/10 08:49:12;;;;;;;0.50;0.50;;;;;;;26.57;nan;62535.97;5011498;28;20279;-67
2023/09/10 08:51:38;;;;;;;0.80;0.80;;;;;;;26.63;nan;62550.13;5011912;28;20171;-67
2023/09/10 08:54:05;;;;;;;1.10;0.95;;;;;;;26.40;nan;62565.75;5011948;28;20262;-66
2023/09/10 08:56:31;;;;;;;1.88;1.05;;;;;;;26.52;nan;62403.84;5011718;28;20200;-67
2023/09/10 08:58:58;;;;;;;0.90;0.90;;;;;;;26.41;nan;62543.88;5011966;28;20180;-67
2023/09/10 09:01:24;;;;;;;0.80;0.80;;;;;;;26.47;nan;62453.19;5011991;28;20179;-67
2023/09/10 09:03:49;;;;;;;0.95;0.95;;;;;;;26.50;nan;62577.19;5011729;28;20180;-69
2023/09/10 09:06:15;;;;;;;0.80;0.80;;;;;;;26.44;nan;62563.03;5011881;28;20271;-67
2023/09/10 09:08:47;;;;;;;1.10;0.88;;;;;;;26.48;nan;62590.63;5011363;28;20271;-66
2023/09/10 09:11:14;;;;;;;0.85;0.80;;;;;;;26.34;nan;62556.84;5011710;28;20595;-68
2023/09/10 09:13:46;;;;;;;1.02;0.70;;;;;;;26.39;nan;62476.06;5011313;28;20188;-66
2023/09/10 09:16:12;;;;;;;1.05;1.05;;;;;;;26.35;nan;62555.94;5011098;28;20175;-65
2023/09/10 09:18:39;;;;;;;0.68;0.68;;;;;;;26.41;nan;62462.03;5011506;28;20647;-66
2023/09/10 09:21:19;;;;;;;0.57;0.57;;;;;;;26.75;nan;62711.28;5011527;28;20172;-66
2023/09/10 09:23:50;;;;;;;0.70;0.70;;;;;;;26.93;nan;62594.41;5011451;28;20254;-66
2023/09/10 09:26:15;;;;;;;1.00;1.00;;;;;;;26.63;nan;62513.44;5011359;28;20230;-66
2023/09/10 09:28:41;;;;;;;0.55;0.55;;;;;;;26.93;nan;62602.84;5011322;28;20173;-66
2023/09/10 09:31:09;;;;;;;0.70;0.70;;;;;;;26.72;nan;62607.63;5011411;28;20305;-65
2023/09/10 09:33:36;;;;;;;1.20;1.10;;;;;;;26.89;nan;62492.75;5011251;28;20242;-66
2023/09/10 09:36:08;;;;;;;0.50;0.50;;;;;;;26.92;nan;62525.63;5011264;28;20184;-66
2023/09/10 09:38:34;;;;;;;1.40;0.98;;;;;;;27.32;nan;62633.25;5011424;28;20643;-68
2023/09/10 09:41:06;;;;;;;0.70;0.70;;;;;;;27.40;nan;62826.75;5011123;28;20271;-67
2023/09/10 09:43:35;;;;;;;0.50;0.50;;;;;;;27.11;nan;62709.47;5012553;28;20168;-66
2023/09/10 09:46:02;;;;;;;0.60;0.60;;;;;;;27.09;nan;62482.09;5014607;28;20175;-66
2023/09/10 09:48:28;;;;;;;0.40;0.40;;;;;;;27.27;nan;62538.84;5014444;28;20186;-66
2023/09/10 09:50:54;;;;;;;0.70;0.70;;;;;;;27.54;nan;62774.00;5014750;28;20163;-68
2023/09/10 09:53:24;;;;;;;3.53;0.70;;;;;;;27.48;nan;62748.69;5014823;28;20195;-67
2023/09/10 09:55:53;;;;;;;0.93;0.93;;;;;;;27.96;nan;62650.81;5014513;28;20178;-67
2023/09/10 09:58:19;;;;;;;1.05;1.00;;;;;;;27.87;nan;62653.66;5015116;28;20169;-67
2023/09/10 10:00:44;;;;;;;0.30;0.30;;;;;;;27.91;nan;62795.44;5013168;28;20206;-67
2023/09/10 10:03:11;;;;;;;0.80;0.80;;;;;;;27.85;nan;62743.88;5014754;28;20270;-68
2023/09/10 10:05:37;;;;;;;1.13;1.02;;;;;;;27.54;nan;62577.06;5014409;28;20552;-67
2023/09/10 10:08:04;;;;;;;1.48;0.80;;;;;;;27.11;nan;62660.19;5014252;28;20644;-68
2023/09/10 10:10:29;;;;;;;0.70;0.70;;;;;;;27.22;nan;62565.19;5014742;28;20183;-69
2023/09/10 10:12:55;;;;;;;0.73;0.73;;;;;;;27.32;nan;62672.63;5014444;28;20210;-69
2023/09/10 10:15:22;;;;;;;0.63;0.63;;;;;;;27.02;nan;62508.19;5014278;28;20614;-68
2023/09/10 10:17:49;;;;;;;1.27;0.80;;;;;;;26.95;nan;62578.91;5014506;28;20184;-68
2023/09/10 10:20:15;;;;;;;0.50;0.50;;;;;;;26.52;nan;62461.50;5014547;28;20196;-67
2023/09/10 10:22:42;;;;;;;1.00;1.00;;;;;;;26.90;nan;62507.59;5014091;28;20207;-68
2023/09/10 10:25:08;;;;;;;1.33;0.82;;;;;;;26.78;nan;62426.22;5014585;28;20222;-67
2023/09/10 10:27:35;;;;;;;1.20;1.10;;;;;;;27.16;nan;62545.19;5014268;28;20192;-67
2023/09/10 10:30:04;;;;;;;0.65;0.65;;;;;;;27.41;nan;62612.63;5014158;28;20190;-66
2023/09/10 10:32:39;;;;;;;0.70;0.70;;;;;;;27.45;nan;62603.50;5013492;28;20198;-67
2023/09/10 10:35:05;;;;;;;0.93;0.93;;;;;;;27.48;nan;62614.78;5014068;28;20286;-68
2023/09/10 10:37:45;;;;;;;0.75;0.75;;;;;;;27.82;nan;62693.16;5013850;28;20259;-68
2023/09/10 10:40:32;;;;;;;0.98;0.98;;;;;;;27.96;nan;62711.84;5014265;28;20229;-67
2023/09/10 10:43:11;;;;;;;0.85;0.85;;;;;;;28.07;nan;62755.38;5011874;28;20278;-68
2023/09/10 10:45:36;;;;;;;0.80;0.80;;;;;;;27.92;nan;62753.97;5013538;28;20179;-67
2023/09/10 10:48:19;;;;;;;0.85;0.85;;;;;;;27.47;nan;62618.91;5013703;28;20168;-67
2023/09/10 10:50:46;;;;;;;0.47;0.47;;;;;;;27.48;nan;62588.53;5013436;28;20199;-67
2023/09/10 10:53:19;;;;;;;1.20;1.17;;;;;;;27.57;nan;62667.13;5013793;28;20254;-67
2023/09/10 10:55:47;;;;;;;0.50;0.50;;;;;;;27.86;nan;62637.31;5012380;28;20595;-66
2023/09/10 10:58:13;;;;;;;0.52;0.52;;;;;;;28.31;nan;62743.50;5013606;28;20286;-67
2023/09/10 11:00:38;;;;;;;0.50;0.50;;;;;;;28.28;nan;62803.16;5013407;28;20186;-68
2023/09/10 11:03:22;;;;;;;0.88;0.88;;;;;;;27.87;nan;62685.19;5013470;28;20199;-67
2023/09/10 11:05:53;;;;;;;1.92;1.73;;;;;;;28.08;nan;62765.00;5013880;28;20203;-67
2023/09/10 11:08:26;;;;;;;1.30;1.20;;;;;;;28.22;nan;62885.09;5013281;28;20225;-68
2023/09/10 11:10:51;;;;;;;0.60;0.60;;;;;;;28.14;nan;62705.06;5013248;28;20176;-68
2023/09/10 11:13:17;;;;;;;0.50;0.50;;;;;;;28.25;nan;62667.72;5013395;28;20191;-68
2023/09/10 11:16:18;;;;;;;0.95;0.90;;;;;;;28.63;nan;62813.25;5013348;28;20176;-65
2023/09/10 11:18:44;;;;;;;0.52;0.52;;;;;;;27.98;nan;62792.38;4991240;28;20745;-67
2023/09/10 11:21:12;;;;;;;0.45;0.45;;;;;;;27.83;nan;62631.25;5008132;28;20191;-67
2023/09/10 11:23:39;;;;;;;1.08;1.02;;;;;;;27.89;nan;62758.41;5013253;28;20687;-68
2023/09/10 11:26:11;;;;;;;0.68;0.68;;;;;;;27.86;nan;62710.31;5014105;28;20160;-67
2023/09/10 11:28:40;;;;;;;0.57;0.57;;;;;;;27.88;nan;62707.34;5013031;28;20635;-67
2023/09/10 11:31:41;;;;;;;0.40;0.40;;;;;;;27.73;nan;62682.84;5012788;28;20574;-67
2023/09/10 11:34:16;;;;;;;0.75;0.75;;;;;;;28.17;nan;62742.66;5012980;28;20195;-68
2023/09/10 11:36:45;;;;;;;0.40;0.40;;;;;;;28.46;nan;62731.19;5011644;28;20175;-67
2023/09/10 11:39:15;;;;;;;0.47;0.47;;;;;;;28.53;nan;62783.94;5012711;28;20215;-68
2023/09/10 11:41:43;;;;;;;0.65;0.65;;;;;;;28.06;nan;62660.22;5012878;28;20182;-67
2023/09/10 11:44:09;;;;;;;0.65;0.65;;;;;;;27.56;nan;62702.78;5012609;28;20176;-68
2023/09/10 11:46:36;;;;;;;0.68;0.68;;;;;;;27.50;nan;62706.97;5013217;28;20175;-67
2023/09/10 11:49:01;;;;;;;0.85;0.85;;;;;;;27.51;nan;62597.84;5012033;28;20185;-66
2023/09/10 11:51:27;;;;;;;0.43;0.43;;;;;;;27.31;nan;62569.09;5012672;28;20164;-68